sensor_id;sensor_type;location;lat;lon;timestamp;pressure;altitude;pressure_sealevel;temperature;humidity
6094;BME280;19964;42.060;24.700;2023-08-31T00:01:36;96786.06;;;22.31;57.67
6094;BME280;19964;42.060;24.700;2023-08-31T00:04:34;96804.06;;;22.29;58.33
6094;BME280;19964;42.060;24.700;2023-08-31T00:07:07;96812.91;;;22.33;57.11
6094;BME280;19964;42.060;24.700;2023-08-31T00:09:34;96801.94;;;22.60;55.55
6094;BME280;19964;42.060;24.700;2023-08-31T00:12:01;96731.34;;;22.11;56.73
6094;BME280;19964;42.060;24.700;2023-08-31T00:14:28;96810.53;;;22.49;58.35
6094;BME280;19964;42.060;24.700;2023-08-31T00:16:55;96810.28;;;22.33;57.82
6094;BME280;19964;42.060;24.700;2023-08-31T00:19:28;96812.91;;;22.33;59.57
6094;BME280;19964;42.060;24.700;2023-08-31T00:21:55;96728.16;;;21.88;57.08
6094;BME280;19964;42.060;24.700;2023-08-31T00:24:23;96811.47;;;22.36;57.99
6094;BME280;19964;42.060;24.700;2023-08-31T00:26:55;96801.56;;;21.86;61.02
6094;BME280;19964;42.060;24.700;2023-08-31T00:29:22;96819.22;;;21.94;61.05
6094;BME280;19964;42.060;24.700;2023-08-31T00:31:50;96804.31;;;21.73;60.37
6094;BME280;19964;42.060;24.700;2023-08-31T00:34:18;96824.16;;;22.13;57.65
6094;BME280;19964;42.060;24.700;2023-08-31T00:36:45;96827.41;;;22.10;60.36
6094;BME280;19964;42.060;24.700;2023-08-31T00:39:12;96833.03;;;22.00;59.56
6094;BME280;19964;42.060;24.700;2023-08-31T00:41:41;96838.94;;;21.80;60.37
6094;BME280;19964;42.060;24.700;2023-08-31T00:44:12;96835.22;;;21.81;60.96
6094;BME280;19964;42.060;24.700;2023-08-31T00:46:46;96818.47;;;21.51;62.55
6094;BME280;19964;42.060;24.700;2023-08-31T00:49:13;96814.13;;;21.47;62.66
6094;BME280;19964;42.060;24.700;2023-08-31T00:51:40;96833.81;;;21.58;61.46
6094;BME280;19964;42.060;24.700;2023-08-31T00:54:07;96832.44;;;21.69;60.47
6094;BME280;19964;42.060;24.700;2023-08-31T00:56:34;96836.00;;;21.81;61.24
6094;BME280;19964;42.060;24.700;2023-08-31T00:59:02;96833.50;;;21.93;58.67
6094;BME280;19964;42.060;24.700;2023-08-31T01:01:36;96831.00;;;22.05;57.93
6094;BME280;19964;42.060;24.700;2023-08-31T01:04:14;96843.69;;;22.21;57.50
6094;BME280;19964;42.060;24.700;2023-08-31T01:06:51;96837.94;;;22.27;56.23
6094;BME280;19964;42.060;24.700;2023-08-31T01:09:28;96839.47;;;22.28;57.65
6094;BME280;19964;42.060;24.700;2023-08-31T01:12:03;96842.41;;;22.35;56.74
6094;BME280;19964;42.060;24.700;2023-08-31T01:14:38;96810.31;;;22.16;56.18
6094;BME280;19964;42.060;24.700;2023-08-31T01:17:14;96838.00;;;22.48;55.20
6094;BME280;19964;42.060;24.700;2023-08-31T01:19:48;96839.38;;;22.54;55.45
6094;BME280;19964;42.060;24.700;2023-08-31T01:22:25;96855.38;;;22.57;56.44
6094;BME280;19964;42.060;24.700;2023-08-31T01:24:57;96841.81;;;22.21;57.27
6094;BME280;19964;42.060;24.700;2023-08-31T01:27:29;96849.75;;;22.21;58.81
6094;BME280;19964;42.060;24.700;2023-08-31T01:29:56;96832.72;;;22.01;58.47
6094;BME280;19964;42.060;24.700;2023-08-31T01:32:23;96855.63;;;22.27;57.28
6094;BME280;19964;42.060;24.700;2023-08-31T01:34:52;96830.63;;;22.24;56.82
6094;BME280;19964;42.060;24.700;2023-08-31T01:37:38;96856.41;;;22.27;59.22
6094;BME280;19964;42.060;24.700;2023-08-31T01:40:14;96855.97;;;22.17;58.69
6094;BME280;19964;42.060;24.700;2023-08-31T01:42:46;96858.00;;;22.11;57.17
6094;BME280;19964;42.060;24.700;2023-08-31T01:45:19;96855.63;;;22.18;57.22
6094;BME280;19964;42.060;24.700;2023-08-31T01:47:56;96867.44;;;22.12;57.50
6094;BME280;19964;42.060;24.700;2023-08-31T01:50:29;96829.00;;;21.94;57.81
6094;BME280;19964;42.060;24.700;2023-08-31T01:53:13;96856.88;;;22.12;57.88
6094;BME280;19964;42.060;24.700;2023-08-31T01:55:42;96789.31;;;21.65;56.71
6094;BME280;19964;42.060;24.700;2023-08-31T01:58:22;96866.34;;;22.22;57.07
6094;BME280;19964;42.060;24.700;2023-08-31T02:00:55;96872.84;;;22.24;56.66
6094;BME280;19964;42.060;24.700;2023-08-31T02:03:31;96864.78;;;22.29;56.54
6094;BME280;19964;42.060;24.700;2023-08-31T02:05:57;96865.13;;;22.19;56.69
6094;BME280;19964;42.060;24.700;2023-08-31T02:08:26;96874.72;;;22.24;56.79
6094;BME280;19964;42.060;24.700;2023-08-31T02:11:01;96875.81;;;22.31;56.58
6094;BME280;19964;42.060;24.700;2023-08-31T02:13:30;96868.81;;;22.27;56.44
6094;BME280;19964;42.060;24.700;2023-08-31T02:16:14;96877.47;;;22.36;56.01
6094;BME280;19964;42.060;24.700;2023-08-31T02:18:42;96878.25;;;22.36;56.07
6094;BME280;19964;42.060;24.700;2023-08-31T02:21:15;96881.41;;;22.21;56.63
6094;BME280;19964;42.060;24.700;2023-08-31T02:23:42;96877.84;;;22.17;58.32
6094;BME280;19964;42.060;24.700;2023-08-31T02:26:11;96862.81;;;22.09;57.19
6094;BME280;19964;42.060;24.700;2023-08-31T02:28:46;96861.28;;;21.99;57.79
6094;BME280;19964;42.060;24.700;2023-08-31T02:31:23;96883.78;;;22.05;57.94
6094;BME280;19964;42.060;24.700;2023-08-31T02:34:02;96876.59;;;22.06;58.24
6094;BME280;19964;42.060;24.700;2023-08-31T02:36:29;96883.28;;;21.78;59.89
6094;BME280;19964;42.060;24.700;2023-08-31T02:38:57;96875.53;;;21.73;60.01
6094;BME280;19964;42.060;24.700;2023-08-31T02:41:26;96882.81;;;21.76;59.13
6094;BME280;19964;42.060;24.700;2023-08-31T02:43:53;96858.63;;;21.57;59.74
6094;BME280;19964;42.060;24.700;2023-08-31T02:46:20;96890.75;;;21.76;59.96
6094;BME280;19964;42.060;24.700;2023-08-31T02:48:50;96873.22;;;21.63;59.33
6094;BME280;19964;42.060;24.700;2023-08-31T02:51:20;96897.41;;;21.65;60.13
6094;BME280;19964;42.060;24.700;2023-08-31T02:53:47;96904.03;;;21.28;63.03
6094;BME280;19964;42.060;24.700;2023-08-31T02:56:19;96906.63;;;21.02;63.80
6094;BME280;19964;42.060;24.700;2023-08-31T02:58:48;96894.00;;;20.91;63.03
6094;BME280;19964;42.060;24.700;2023-08-31T03:01:25;96905.22;;;21.05;62.97
6094;BME280;19964;42.060;24.700;2023-08-31T03:03:52;96910.44;;;20.96;63.31
6094;BME280;19964;42.060;24.700;2023-08-31T03:06:36;96905.94;;;20.97;63.77
6094;BME280;19964;42.060;24.700;2023-08-31T03:09:07;96899.34;;;21.16;60.97
6094;BME280;19964;42.060;24.700;2023-08-31T03:11:35;96913.84;;;21.45;61.11
6094;BME280;19964;42.060;24.700;2023-08-31T03:14:17;96913.66;;;21.24;63.52
6094;BME280;19964;42.060;24.700;2023-08-31T03:16:44;96909.75;;;21.21;61.92
6094;BME280;19964;42.060;24.700;2023-08-31T03:19:15;96912.88;;;21.32;60.98
6094;BME280;19964;42.060;24.700;2023-08-31T03:21:50;96914.16;;;21.43;61.03
6094;BME280;19964;42.060;24.700;2023-08-31T03:24:17;96923.63;;;21.53;60.51
6094;BME280;19964;42.060;24.700;2023-08-31T03:27:00;96907.00;;;21.52;61.28
6094;BME280;19964;42.060;24.700;2023-08-31T03:29:32;96905.28;;;21.22;64.01
6094;BME280;19964;42.060;24.700;2023-08-31T03:32:00;96916.06;;;21.03;64.44
6094;BME280;19964;42.060;24.700;2023-08-31T03:34:36;96910.72;;;20.86;64.74
6094;BME280;19964;42.060;24.700;2023-08-31T03:37:03;96821.72;;;20.18;65.08
6094;BME280;19964;42.060;24.700;2023-08-31T03:39:36;96909.44;;;20.75;65.57
6094;BME280;19964;42.060;24.700;2023-08-31T03:42:04;96897.19;;;20.40;66.88
6094;BME280;19964;42.060;24.700;2023-08-31T03:44:38;96911.47;;;20.48;67.41
6094;BME280;19964;42.060;24.700;2023-08-31T03:47:05;96894.84;;;19.94;68.92
6094;BME280;19964;42.060;24.700;2023-08-31T03:49:39;96912.66;;;19.97;70.06
6094;BME280;19964;42.060;24.700;2023-08-31T03:52:06;96915.53;;;19.87;70.13
6094;BME280;19964;42.060;24.700;2023-08-31T03:54:41;96931.06;;;19.97;68.89
6094;BME280;19964;42.060;24.700;2023-08-31T03:57:08;96931.75;;;20.03;70.11
6094;BME280;19964;42.060;24.700;2023-08-31T03:59:43;96931.53;;;19.99;69.74
6094;BME280;19964;42.060;24.700;2023-08-31T04:02:10;96942.50;;;19.93;70.45
6094;BME280;19964;42.060;24.700;2023-08-31T04:04:41;96927.59;;;19.88;71.06
6094;BME280;19964;42.060;24.700;2023-08-31T04:07:10;96939.91;;;20.01;69.38
6094;BME280;19964;42.060;24.700;2023-08-31T04:09:44;96950.66;;;20.27;67.99
6094;BME280;19964;42.060;24.700;2023-08-31T04:12:14;96948.13;;;20.44;66.66
6094;BME280;19964;42.060;24.700;2023-08-31T04:14:48;96932.53;;;20.25;67.09
6094;BME280;19964;42.060;24.700;2023-08-31T04:17:15;96956.94;;;20.39;67.35
6094;BME280;19964;42.060;24.700;2023-08-31T04:19:50;96957.97;;;20.61;65.15
6094;BME280;19964;42.060;24.700;2023-08-31T04:22:17;96965.97;;;21.08;63.44
6094;BME280;19964;42.060;24.700;2023-08-31T04:24:46;96976.19;;;21.49;61.48
6094;BME280;19964;42.060;24.700;2023-08-31T04:27:16;96979.63;;;21.67;61.98
6094;BME280;19964;42.060;24.700;2023-08-31T04:29:50;96975.66;;;22.03;60.63
6094;BME280;19964;42.060;24.700;2023-08-31T04:32:19;96979.19;;;22.42;59.57
6094;BME280;19964;42.060;24.700;2023-08-31T04:34:48;96977.63;;;22.66;59.05
6094;BME280;19964;42.060;24.700;2023-08-31T04:37:19;96976.78;;;22.83;58.15
6094;BME280;19964;42.060;24.700;2023-08-31T04:39:57;96971.41;;;23.09;57.60
6094;BME280;19964;42.060;24.700;2023-08-31T04:42:23;96962.63;;;23.25;57.40
6094;BME280;19964;42.060;24.700;2023-08-31T04:44:58;96963.72;;;23.24;56.82
6094;BME280;19964;42.060;24.700;2023-08-31T04:47:24;96974.22;;;23.50;57.98
6094;BME280;19964;42.060;24.700;2023-08-31T04:49:59;96981.56;;;23.44;59.07
6094;BME280;19964;42.060;24.700;2023-08-31T04:52:26;96984.59;;;23.55;58.03
6094;BME280;19964;42.060;24.700;2023-08-31T04:55:01;96988.19;;;23.79;57.10
6094;BME280;19964;42.060;24.700;2023-08-31T04:57:29;96991.91;;;23.99;56.88
6094;BME280;19964;42.060;24.700;2023-08-31T05:00:04;96987.09;;;24.22;55.87
6094;BME280;19964;42.060;24.700;2023-08-31T05:02:36;96963.03;;;24.47;54.67
6094;BME280;19964;42.060;24.700;2023-08-31T05:11:59;97005.28;;;25.57;52.62
6094;BME280;19964;42.060;24.700;2023-08-31T05:14:32;96997.72;;;25.96;51.10
6094;BME280;19964;42.060;24.700;2023-08-31T05:17:04;96992.41;;;25.96;51.30
6094;BME280;19964;42.060;24.700;2023-08-31T05:19:31;96919.13;;;25.67;49.97
6094;BME280;19964;42.060;24.700;2023-08-31T05:21:58;97009.56;;;26.38;50.25
6094;BME280;19964;42.060;24.700;2023-08-31T05:24:25;97019.38;;;26.77;49.10
6094;BME280;19964;42.060;24.700;2023-08-31T05:26:51;97018.56;;;27.20;48.17
6094;BME280;19964;42.060;24.700;2023-08-31T05:29:18;97014.78;;;27.52;47.20
6094;BME280;19964;42.060;24.700;2023-08-31T05:31:45;97016.75;;;27.71;45.10
6094;BME280;19964;42.060;24.700;2023-08-31T05:34:20;97017.59;;;28.09;44.91
6094;BME280;19964;42.060;24.700;2023-08-31T05:36:47;97028.97;;;28.06;44.41
6094;BME280;19964;42.060;24.700;2023-08-31T05:39:14;97042.59;;;28.40;43.43
6094;BME280;19964;42.060;24.700;2023-08-31T05:41:42;97033.22;;;28.65;43.27
6094;BME280;19964;42.060;24.700;2023-08-31T05:44:09;97032.69;;;29.20;42.79
6094;BME280;19964;42.060;24.700;2023-08-31T05:46:36;97034.81;;;29.34;42.52
6094;BME280;19964;42.060;24.700;2023-08-31T05:49:04;97032.56;;;29.36;42.11
6094;BME280;19964;42.060;24.700;2023-08-31T05:51:32;97037.97;;;29.17;41.32
6094;BME280;19964;42.060;24.700;2023-08-31T05:53:59;97050.69;;;29.49;41.59
6094;BME280;19964;42.060;24.700;2023-08-31T05:56:26;97043.50;;;29.53;41.42
6094;BME280;19964;42.060;24.700;2023-08-31T05:58:53;97039.94;;;29.68;42.11
6094;BME280;19964;42.060;24.700;2023-08-31T06:01:21;97040.72;;;29.95;40.49
6094;BME280;19964;42.060;24.700;2023-08-31T06:03:48;97045.53;;;29.60;39.76
6094;BME280;19964;42.060;24.700;2023-08-31T06:06:15;97002.00;;;29.11;42.70
6094;BME280;19964;42.060;24.700;2023-08-31T06:08:43;97048.25;;;29.86;39.78
6094;BME280;19964;42.060;24.700;2023-08-31T06:11:10;97048.00;;;30.24;40.31
6094;BME280;19964;42.060;24.700;2023-08-31T06:13:38;97056.44;;;30.00;38.39
6094;BME280;19964;42.060;24.700;2023-08-31T06:16:05;97058.03;;;30.31;39.11
6094;BME280;19964;42.060;24.700;2023-08-31T06:18:32;97054.63;;;30.67;38.16
6094;BME280;19964;42.060;24.700;2023-08-31T06:20:59;97054.47;;;30.23;39.50
6094;BME280;19964;42.060;24.700;2023-08-31T06:23:26;97057.47;;;30.18;39.65
6094;BME280;19964;42.060;24.700;2023-08-31T06:25:54;97066.16;;;30.12;38.87
6094;BME280;19964;42.060;24.700;2023-08-31T06:28:21;97062.09;;;30.51;39.83
6094;BME280;19964;42.060;24.700;2023-08-31T06:30:48;97066.16;;;30.71;38.95
6094;BME280;19964;42.060;24.700;2023-08-31T06:33:15;97073.34;;;30.63;38.34
6094;BME280;19964;42.060;24.700;2023-08-31T06:35:45;97068.41;;;30.69;39.25
6094;BME280;19964;42.060;24.700;2023-08-31T06:38:12;97068.03;;;30.37;38.09
6094;BME280;19964;42.060;24.700;2023-08-31T06:40:38;97073.28;;;30.60;38.06
6094;BME280;19964;42.060;24.700;2023-08-31T06:43:07;97072.84;;;30.54;39.03
6094;BME280;19964;42.060;24.700;2023-08-31T06:45:34;97076.41;;;30.95;39.57
6094;BME280;19964;42.060;24.700;2023-08-31T06:48:01;97067.25;;;30.66;37.87
6094;BME280;19964;42.060;24.700;2023-08-31T06:50:28;97068.59;;;30.24;38.52
6094;BME280;19964;42.060;24.700;2023-08-31T06:52:55;97067.00;;;30.45;38.48
6094;BME280;19964;42.060;24.700;2023-08-31T06:55:22;97069.59;;;30.38;39.34
6094;BME280;19964;42.060;24.700;2023-08-31T06:57:49;97059.34;;;30.44;38.44
6094;BME280;19964;42.060;24.700;2023-08-31T07:00:18;97073.13;;;30.79;38.68
6094;BME280;19964;42.060;24.700;2023-08-31T07:02:45;97082.81;;;30.57;38.76
6094;BME280;19964;42.060;24.700;2023-08-31T07:05:12;97060.59;;;30.83;38.05
6094;BME280;19964;42.060;24.700;2023-08-31T07:07:39;97085.88;;;31.26;37.59
6094;BME280;19964;42.060;24.700;2023-08-31T07:10:07;97084.28;;;31.62;36.35
6094;BME280;19964;42.060;24.700;2023-08-31T07:12:34;97078.69;;;31.81;36.45
6094;BME280;19964;42.060;24.700;2023-08-31T07:15:01;97079.78;;;31.76;37.54
6094;BME280;19964;42.060;24.700;2023-08-31T07:17:30;97082.56;;;31.87;37.09
6094;BME280;19964;42.060;24.700;2023-08-31T07:19:57;97074.50;;;31.83;35.94
6094;BME280;19964;42.060;24.700;2023-08-31T07:22:24;97081.50;;;31.47;36.12
6094;BME280;19964;42.060;24.700;2023-08-31T07:24:51;97085.97;;;31.36;36.85
6094;BME280;19964;42.060;24.700;2023-08-31T07:27:18;97061.16;;;31.43;38.05
6094;BME280;19964;42.060;24.700;2023-08-31T07:29:45;97087.00;;;31.69;37.15
6094;BME280;19964;42.060;24.700;2023-08-31T07:32:11;97081.91;;;32.00;35.43
6094;BME280;19964;42.060;24.700;2023-08-31T07:34:40;97086.53;;;31.16;37.22
6094;BME280;19964;42.060;24.700;2023-08-31T07:37:07;97085.84;;;31.22;39.12
6094;BME280;19964;42.060;24.700;2023-08-31T07:39:33;97091.66;;;31.35;36.97
6094;BME280;19964;42.060;24.700;2023-08-31T07:42:00;97084.25;;;31.18;36.58
6094;BME280;19964;42.060;24.700;2023-08-31T07:44:27;97080.06;;;31.17;36.76
6094;BME280;19964;42.060;24.700;2023-08-31T07:46:54;97064.78;;;31.68;36.83
6094;BME280;19964;42.060;24.700;2023-08-31T07:49:21;97084.84;;;31.88;36.56
6094;BME280;19964;42.060;24.700;2023-08-31T07:51:49;97094.50;;;31.93;35.73
6094;BME280;19964;42.060;24.700;2023-08-31T07:54:20;97092.75;;;32.21;35.87
6094;BME280;19964;42.060;24.700;2023-08-31T07:56:47;97085.22;;;32.45;35.08
6094;BME280;19964;42.060;24.700;2023-08-31T07:59:14;97073.13;;;31.56;35.15
6094;BME280;19964;42.060;24.700;2023-08-31T08:01:41;97093.44;;;31.57;36.32
6094;BME280;19964;42.060;24.700;2023-08-31T08:04:07;97075.19;;;31.73;35.78
6094;BME280;19964;42.060;24.700;2023-08-31T08:06:34;97089.19;;;32.03;37.50
6094;BME280;19964;42.060;24.700;2023-08-31T08:09:03;97089.41;;;31.81;37.84
6094;BME280;19964;42.060;24.700;2023-08-31T08:11:31;97089.00;;;31.79;37.58
6094;BME280;19964;42.060;24.700;2023-08-31T08:13:58;97062.16;;;31.28;36.62
6094;BME280;19964;42.060;24.700;2023-08-31T08:16:25;97075.34;;;31.07;36.54
6094;BME280;19964;42.060;24.700;2023-08-31T08:18:52;97078.47;;;31.52;36.54
6094;BME280;19964;42.060;24.700;2023-08-31T08:21:19;97081.13;;;31.49;36.65
6094;BME280;19964;42.060;24.700;2023-08-31T08:23:46;97083.13;;;31.59;37.01
6094;BME280;19964;42.060;24.700;2023-08-31T08:26:17;97074.81;;;31.31;36.22
6094;BME280;19964;42.060;24.700;2023-08-31T08:28:44;97085.19;;;31.36;35.98
6094;BME280;19964;42.060;24.700;2023-08-31T08:31:12;97058.34;;;30.89;37.92
6094;BME280;19964;42.060;24.700;2023-08-31T08:33:39;97075.59;;;30.91;37.52
6094;BME280;19964;42.060;24.700;2023-08-31T08:36:06;97075.38;;;30.44;39.02
6094;BME280;19964;42.060;24.700;2023-08-31T08:38:33;97069.63;;;30.75;37.99
6094;BME280;19964;42.060;24.700;2023-08-31T08:41:04;97057.41;;;30.41;39.50
6094;BME280;19964;42.060;24.700;2023-08-31T08:43:33;97072.47;;;30.26;37.85
6094;BME280;19964;42.060;24.700;2023-08-31T08:46:04;97068.88;;;30.74;37.52
6094;BME280;19964;42.060;24.700;2023-08-31T08:48:34;97069.56;;;31.01;37.83
6094;BME280;19964;42.060;24.700;2023-08-31T08:51:02;97070.78;;;31.51;36.84
6094;BME280;19964;42.060;24.700;2023-08-31T08:53:29;97066.75;;;31.75;35.41
6094;BME280;19964;42.060;24.700;2023-08-31T08:55:56;97065.03;;;32.00;37.13
6094;BME280;19964;42.060;24.700;2023-08-31T08:58:23;97071.22;;;32.07;33.51
6094;BME280;19964;42.060;24.700;2023-08-31T09:00:54;97063.75;;;32.48;36.00
6094;BME280;19964;42.060;24.700;2023-08-31T09:03:22;97055.63;;;31.66;35.06
6094;BME280;19964;42.060;24.700;2023-08-31T09:05:50;97065.22;;;31.74;34.18
6094;BME280;19964;42.060;24.700;2023-08-31T09:08:17;97059.53;;;31.82;35.97
6094;BME280;19964;42.060;24.700;2023-08-31T09:10:44;97065.94;;;32.21;35.58
6094;BME280;19964;42.060;24.700;2023-08-31T09:13:12;97066.88;;;31.38;35.33
6094;BME280;19964;42.060;24.700;2023-08-31T09:15:40;97043.97;;;31.07;36.62
6094;BME280;19964;42.060;24.700;2023-08-31T09:18:14;97069.06;;;31.73;36.87
6094;BME280;19964;42.060;24.700;2023-08-31T09:20:46;97067.47;;;31.68;36.21
6094;BME280;19964;42.060;24.700;2023-08-31T09:23:13;97061.22;;;32.01;34.68
6094;BME280;19964;42.060;24.700;2023-08-31T09:25:42;97065.75;;;31.93;37.71
6094;BME280;19964;42.060;24.700;2023-08-31T09:28:10;97048.63;;;31.54;35.55
6094;BME280;19964;42.060;24.700;2023-08-31T09:30:38;97052.09;;;31.58;36.32
6094;BME280;19964;42.060;24.700;2023-08-31T09:33:08;97057.97;;;32.39;34.67
6094;BME280;19964;42.060;24.700;2023-08-31T09:35:39;97064.38;;;32.17;34.22
6094;BME280;19964;42.060;24.700;2023-08-31T09:38:08;97002.34;;;32.32;33.87
6094;BME280;19964;42.060;24.700;2023-08-31T09:40:36;97062.84;;;33.65;33.93
6094;BME280;19964;42.060;24.700;2023-08-31T09:43:03;97063.97;;;33.22;32.99
6094;BME280;19964;42.060;24.700;2023-08-31T09:45:31;97076.06;;;32.49;33.84
6094;BME280;19964;42.060;24.700;2023-08-31T09:47:59;97066.09;;;32.53;33.33
6094;BME280;19964;42.060;24.700;2023-08-31T09:50:28;97061.19;;;32.73;33.78
6094;BME280;19964;42.060;24.700;2023-08-31T09:52:56;97073.66;;;32.30;33.48
6094;BME280;19964;42.060;24.700;2023-08-31T09:55:27;97073.94;;;32.14;34.17
6094;BME280;19964;42.060;24.700;2023-08-31T09:57:56;97069.22;;;31.97;33.99
6094;BME280;19964;42.060;24.700;2023-08-31T10:00:24;97056.75;;;31.65;35.80
6094;BME280;19964;42.060;24.700;2023-08-31T10:02:52;97068.38;;;30.65;35.11
6094;BME280;19964;42.060;24.700;2023-08-31T10:05:19;97075.16;;;30.56;36.51
6094;BME280;19964;42.060;24.700;2023-08-31T10:07:48;97062.06;;;30.81;35.46
6094;BME280;19964;42.060;24.700;2023-08-31T10:10:17;97057.91;;;30.83;35.95
6094;BME280;19964;42.060;24.700;2023-08-31T10:12:45;97063.03;;;30.99;34.79
6094;BME280;19964;42.060;24.700;2023-08-31T10:15:15;97064.50;;;30.93;36.29
6094;BME280;19964;42.060;24.700;2023-08-31T10:17:42;97058.38;;;30.59;35.18
6094;BME280;19964;42.060;24.700;2023-08-31T10:20:10;97061.81;;;30.59;36.07
6094;BME280;19964;42.060;24.700;2023-08-31T10:22:38;97062.78;;;31.11;35.20
6094;BME280;19964;42.060;24.700;2023-08-31T10:25:07;97060.66;;;31.78;36.28
6094;BME280;19964;42.060;24.700;2023-08-31T10:27:38;97061.56;;;31.92;34.51
6094;BME280;19964;42.060;24.700;2023-08-31T10:30:25;97056.69;;;30.81;34.77
6094;BME280;19964;42.060;24.700;2023-08-31T10:33:20;97060.25;;;30.25;35.73
6094;BME280;19964;42.060;24.700;2023-08-31T10:35:50;97053.44;;;30.31;36.10
6094;BME280;19964;42.060;24.700;2023-08-31T10:38:24;97058.66;;;30.21;37.48
6094;BME280;19964;42.060;24.700;2023-08-31T10:41:18;97058.91;;;30.38;38.78
6094;BME280;19964;42.060;24.700;2023-08-31T10:43:47;97050.72;;;30.57;36.16
6094;BME280;19964;42.060;24.700;2023-08-31T10:46:24;97059.38;;;30.47;36.20
6094;BME280;19964;42.060;24.700;2023-08-31T10:48:55;97029.72;;;30.59;36.51
6094;BME280;19964;42.060;24.700;2023-08-31T10:51:24;97070.63;;;30.60;36.80
6094;BME280;19964;42.060;24.700;2023-08-31T10:53:51;97066.16;;;30.38;35.52
6094;BME280;19964;42.060;24.700;2023-08-31T10:56:21;96977.72;;;29.94;35.86
6094;BME280;19964;42.060;24.700;2023-08-31T10:58:58;97064.56;;;30.66;35.35
6094;BME280;19964;42.060;24.700;2023-08-31T11:01:54;97059.53;;;31.35;35.54
6094;BME280;19964;42.060;24.700;2023-08-31T11:04:21;97042.22;;;31.66;34.70
6094;BME280;19964;42.060;24.700;2023-08-31T11:06:49;97065.94;;;31.64;35.17
6094;BME280;19964;42.060;24.700;2023-08-31T11:09:20;97061.50;;;31.38;35.20
6094;BME280;19964;42.060;24.700;2023-08-31T11:11:48;97066.50;;;31.39;34.70
6094;BME280;19964;42.060;24.700;2023-08-31T11:14:15;97024.19;;;30.79;34.77
6094;BME280;19964;42.060;24.700;2023-08-31T11:16:43;97057.25;;;31.37;35.45
6094;BME280;19964;42.060;24.700;2023-08-31T11:19:10;97045.50;;;31.45;35.61
6094;BME280;19964;42.060;24.700;2023-08-31T11:21:37;97055.06;;;30.72;35.28
6094;BME280;19964;42.060;24.700;2023-08-31T11:24:05;97055.47;;;30.74;36.36
6094;BME280;19964;42.060;24.700;2023-08-31T11:26:32;97049.81;;;31.16;37.19
6094;BME280;19964;42.060;24.700;2023-08-31T11:29:01;97024.97;;;31.63;34.56
6094;BME280;19964;42.060;24.700;2023-08-31T11:31:28;97050.06;;;31.41;35.76
6094;BME280;19964;42.060;24.700;2023-08-31T11:33:54;97051.47;;;31.79;34.23
6094;BME280;19964;42.060;24.700;2023-08-31T11:36:22;97051.03;;;32.34;35.31
6094;BME280;19964;42.060;24.700;2023-08-31T11:38:50;97051.25;;;32.01;34.02
6094;BME280;19964;42.060;24.700;2023-08-31T11:41:17;97044.97;;;31.80;34.66
6094;BME280;19964;42.060;24.700;2023-08-31T11:43:44;97024.69;;;31.79;33.74
6094;BME280;19964;42.060;24.700;2023-08-31T11:46:13;97034.75;;;31.41;34.51
6094;BME280;19964;42.060;24.700;2023-08-31T11:48:41;97036.13;;;31.72;34.16
6094;BME280;19964;42.060;24.700;2023-08-31T11:51:08;97036.06;;;32.26;33.96
6094;BME280;19964;42.060;24.700;2023-08-31T11:53:35;97026.75;;;31.45;33.87
6094;BME280;19964;42.060;24.700;2023-08-31T11:56:02;97007.75;;;31.17;34.03
6094;BME280;19964;42.060;24.700;2023-08-31T11:58:29;97031.16;;;30.83;35.52
6094;BME280;19964;42.060;24.700;2023-08-31T12:00:57;97022.53;;;31.04;34.72
6094;BME280;19964;42.060;24.700;2023-08-31T12:03:27;97024.38;;;31.36;34.00
6094;BME280;19964;42.060;24.700;2023-08-31T12:05:54;97027.22;;;31.58;36.32
6094;BME280;19964;42.060;24.700;2023-08-31T12:08:27;97020.56;;;31.37;34.72
6094;BME280;19964;42.060;24.700;2023-08-31T12:10:54;97028.41;;;31.16;34.79
6094;BME280;19964;42.060;24.700;2023-08-31T12:13:25;97020.28;;;31.09;35.36
6094;BME280;19964;42.060;24.700;2023-08-31T12:15:55;97014.06;;;31.38;34.84
6094;BME280;19964;42.060;24.700;2023-08-31T12:18:22;97020.25;;;31.46;34.75
6094;BME280;19964;42.060;24.700;2023-08-31T12:20:52;96944.72;;;31.30;35.27
6094;BME280;19964;42.060;24.700;2023-08-31T12:23:19;97012.25;;;31.53;36.95
6094;BME280;19964;42.060;24.700;2023-08-31T12:25:48;97013.44;;;31.59;36.63
6094;BME280;19964;42.060;24.700;2023-08-31T12:28:16;96991.44;;;31.36;37.63
6094;BME280;19964;42.060;24.700;2023-08-31T12:30:48;97015.06;;;31.23;36.28
6094;BME280;19964;42.060;24.700;2023-08-31T12:33:15;97024.81;;;31.42;35.10
6094;BME280;19964;42.060;24.700;2023-08-31T12:35:42;96996.59;;;31.55;35.79
6094;BME280;19964;42.060;24.700;2023-08-31T12:38:11;97013.44;;;31.59;36.68
6094;BME280;19964;42.060;24.700;2023-08-31T12:40:38;97012.56;;;31.41;36.41
6094;BME280;19964;42.060;24.700;2023-08-31T12:43:05;97019.13;;;31.07;36.33
6094;BME280;19964;42.060;24.700;2023-08-31T12:45:33;96938.59;;;30.42;36.19
6094;BME280;19964;42.060;24.700;2023-08-31T12:48:00;97006.72;;;30.88;36.56
6094;BME280;19964;42.060;24.700;2023-08-31T12:50:27;97008.22;;;31.29;36.48
6094;BME280;19964;42.060;24.700;2023-08-31T12:52:55;97007.22;;;32.02;35.51
6094;BME280;19964;42.060;24.700;2023-08-31T12:55:23;96998.81;;;32.04;34.01
6094;BME280;19964;42.060;24.700;2023-08-31T12:57:50;96991.28;;;32.41;34.32
6094;BME280;19964;42.060;24.700;2023-08-31T13:00:18;97003.34;;;33.00;33.19
6094;BME280;19964;42.060;24.700;2023-08-31T13:02:45;96992.06;;;32.41;34.07
6094;BME280;19964;42.060;24.700;2023-08-31T13:05:12;96980.50;;;32.20;33.99
6094;BME280;19964;42.060;24.700;2023-08-31T13:07:39;96983.09;;;32.02;36.16
6094;BME280;19964;42.060;24.700;2023-08-31T13:10:07;97006.31;;;31.84;35.48
6094;BME280;19964;42.060;24.700;2023-08-31T13:12:35;97000.72;;;31.42;34.60
6094;BME280;19964;42.060;24.700;2023-08-31T13:15:03;97008.59;;;31.75;35.49
6094;BME280;19964;42.060;24.700;2023-08-31T13:17:34;96998.28;;;31.30;35.29
6094;BME280;19964;42.060;24.700;2023-08-31T13:20:01;97002.75;;;31.59;36.75